Ufo 3 — IUNV — position and weather

sailwx.info

Track history (hours):
 
Tides and Currents Weather Stations Pressure Air Temp Water Temp Dewpoint Dewpoint Depression Visibility Wind Speed Wind Dir Waves Ship Positions

Ufo 3

Last reported at 2014-Oct-31 16:16 UTC. Time now 2014-Nov-01 01:58 UTC.
Position N 44°03' E 009°51'.

Length 28 m.

Type: Passenger vessel. MMSI: 247031600.

Date/timePositionNaut miles runAvg speedWind from/ knotsBaromVisibWave heightAir tempDewpointWater temp
2014-Oct-31 16:16N 44°03' E 009°51'0 0.6
2014-Oct-31 15:33N 44°03' E 009°50'0 0.0
2014-Oct-31 14:33N 44°03' E 009°50'0 0.0
2014-Oct-31 13:33N 44°03' E 009°50'0 0.0
2014-Oct-31 12:33N 44°03' E 009°50'1 0.6
2014-Oct-31 11:33N 44°03' E 009°50'1 0.6
2014-Oct-31 10:33N 44°03' E 009°50'0 0.0
2014-Oct-31 09:33N 44°03' E 009°50'0 0.0
2014-Oct-31 08:33N 44°03' E 009°50'0 0.0
2014-Oct-30 15:33N 44°03' E 009°51'9 8.3
2014-Oct-30 14:26N 44°08' E 009°40'1 0.4
2014-Oct-30 12:33N 44°09' E 009°39'4 4.0
2014-Oct-30 11:25N 44°06' E 009°44'5 5.5
2014-Oct-30 10:34N 44°05' E 009°50'1 1.1
2014-Oct-30 09:33N 44°06' E 009°50'0 0.0
2014-Oct-30 08:34N 44°06' E 009°50'3 0.1
2014-Oct-28 15:33N 44°03' E 009°51'9 8.1
2014-Oct-28 14:24N 44°08' E 009°40'0 0.5
2014-Oct-28 13:30N 44°09' E 009°39'0 0.0
2014-Oct-28 12:27N 44°09' E 009°39'4 4.5
2014-Oct-28 11:27N 44°06' E 009°44'5 5.8
2014-Oct-28 10:33N 44°03' E 009°50'0 0.0
2014-Oct-28 09:33N 44°03' E 009°50'0 0.0
2014-Oct-28 08:33N 44°03' E 009°50'0 0.0
2014-Oct-27 16:31N 44°03' E 009°51'10 8.7
2014-Oct-27 15:25N 44°08' E 009°40'0 0.5
2014-Oct-27 14:33N 44°09' E 009°39'8 7.7
2014-Oct-27 13:33N 44°04' E 009°48'2 2.1
2014-Oct-27 12:33N 44°03' E 009°50'0 0.0
2014-Oct-27 11:33N 44°03' E 009°50'0 0.4
2014-Oct-27 10:33N 44°03' E 009°50'9 8.9
2014-Oct-27 09:30N 44°09' E 009°39'7 6.9
2014-Oct-27 08:34N 44°04' E 009°46'2 0.1
2014-Oct-26 14:33N 44°03' E 009°49'4 1.1
2014-Oct-26 10:30N 44°06' E 009°44'8 8.2
2014-Oct-26 09:33N 44°04' E 009°55'4 3.5
2014-Oct-26 08:33N 44°06' E 009°50'3 0.2
2014-Oct-25 14:04N 44°03' E 009°51'4 7.9
2014-Oct-25 13:33N 44°05' E 009°46'6 6.0
2014-Oct-25 12:32N 44°09' E 009°39'0 0.0
2014-Oct-25 11:31N 44°09' E 009°39'4 4.0
2014-Oct-25 10:26N 44°06' E 009°44'5 5.6
2014-Oct-25 09:33N 44°03' E 009°50'9 8.9
2014-Oct-25 08:34N 44°08' E 009°40'2 2.0
2014-Oct-25 07:33N 44°07' E 009°42'7 0.2
2014-Oct-23 09:33N 44°03' E 009°50'3 3.3
2014-Oct-23 08:34N 44°05' E 009°54'  
Track history (hours):
 
Tides and Currents Weather Stations Pressure Air Temp Water Temp Dewpoint Dewpoint Depression Visibility Wind Speed Wind Dir Waves Ship Positions

Ufo 3

Last reported at 2014-Oct-31 16:16 UTC. Time now 2014-Nov-01 01:58 UTC.
Position N 44°03' E 009°51'.

Length 28 m.

Type: Passenger vessel. MMSI: 247031600.

Date/timePositionNaut miles runAvg speedWind from/ knotsBaromVisibWave heightAir tempDewpointWater temp
2014-Oct-31 16:16N 44°03' E 009°51'0 0.6
2014-Oct-31 15:33N 44°03' E 009°50'0 0.0
2014-Oct-31 14:33N 44°03' E 009°50'0 0.0
2014-Oct-31 13:33N 44°03' E 009°50'0 0.0
2014-Oct-31 12:33N 44°03' E 009°50'1 0.6
2014-Oct-31 11:33N 44°03' E 009°50'1 0.6
2014-Oct-31 10:33N 44°03' E 009°50'0 0.0
2014-Oct-31 09:33N 44°03' E 009°50'0 0.0
2014-Oct-31 08:33N 44°03' E 009°50'0 0.0
2014-Oct-30 15:33N 44°03' E 009°51'9 8.3
2014-Oct-30 14:26N 44°08' E 009°40'1 0.4
2014-Oct-30 12:33N 44°09' E 009°39'4 4.0
2014-Oct-30 11:25N 44°06' E 009°44'5 5.5
2014-Oct-30 10:34N 44°05' E 009°50'1 1.1
2014-Oct-30 09:33N 44°06' E 009°50'0 0.0
2014-Oct-30 08:34N 44°06' E 009°50'3 0.1
2014-Oct-28 15:33N 44°03' E 009°51'9 8.1
2014-Oct-28 14:24N 44°08' E 009°40'0 0.5
2014-Oct-28 13:30N 44°09' E 009°39'0 0.0
2014-Oct-28 12:27N 44°09' E 009°39'4 4.5
2014-Oct-28 11:27N 44°06' E 009°44'5 5.8
2014-Oct-28 10:33N 44°03' E 009°50'0 0.0
2014-Oct-28 09:33N 44°03' E 009°50'0 0.0
2014-Oct-28 08:33N 44°03' E 009°50'0 0.0
2014-Oct-27 16:31N 44°03' E 009°51'10 8.7
2014-Oct-27 15:25N 44°08' E 009°40'0 0.5
2014-Oct-27 14:33N 44°09' E 009°39'8 7.7
2014-Oct-27 13:33N 44°04' E 009°48'2 2.1
2014-Oct-27 12:33N 44°03' E 009°50'0 0.0
2014-Oct-27 11:33N 44°03' E 009°50'0 0.4
2014-Oct-27 10:33N 44°03' E 009°50'9 8.9
2014-Oct-27 09:30N 44°09' E 009°39'7 6.9
2014-Oct-27 08:34N 44°04' E 009°46'2 0.1
2014-Oct-26 14:33N 44°03' E 009°49'4 1.1
2014-Oct-26 10:30N 44°06' E 009°44'8 8.2
2014-Oct-26 09:33N 44°04' E 009°55'4 3.5
2014-Oct-26 08:33N 44°06' E 009°50'3 0.2
2014-Oct-25 14:04N 44°03' E 009°51'4 7.9
2014-Oct-25 13:33N 44°05' E 009°46'6 6.0
2014-Oct-25 12:32N 44°09' E 009°39'0 0.0
2014-Oct-25 11:31N 44°09' E 009°39'4 4.0
2014-Oct-25 10:26N 44°06' E 009°44'5 5.6
2014-Oct-25 09:33N 44°03' E 009°50'9 8.9
2014-Oct-25 08:34N 44°08' E 009°40'2 2.0
2014-Oct-25 07:33N 44°07' E 009°42'7 0.2
2014-Oct-23 09:33N 44°03' E 009°50'3 3.3
2014-Oct-23 08:34N 44°05' E 009°54'  

Dump ship's entire track history